Time;durP1;ratioP1;P1;durP2;ratioP2;P2;SDS_P1;SDS_P2;PMS_P1;PMS_P2;Temp;Humidity;BMP_temperature;BMP_pressure;BME280_temperature;BME280_humidity;BME280_pressure;Samples;Min_cycle;Max_cycle;Signal;HPM_P1;HPM_P2
2022/11/25 00:01:49;;;;;;;3.13;0.80;;;;;;;;;;5105906;28;20063;-76
2022/11/25 00:04:20;;;;;;;2.33;0.63;;;;;;;;;;5107799;28;20048;-76
2022/11/25 00:06:50;;;;;;;4.72;0.70;;;;;;;;;;5108009;28;20074;-72
2022/11/25 00:09:21;;;;;;;2.17;0.63;;;;;;;;;;5107862;28;20058;-73
2022/11/25 00:11:51;;;;;;;1.63;0.52;;;;;;;;;;5107323;28;20051;-72
2022/11/25 00:14:21;;;;;;;3.00;0.68;;;;;;;;;;5106918;28;20063;-73
2022/11/25 00:16:51;;;;;;;4.18;0.98;;;;;;;;;;5105088;28;20059;-73
2022/11/25 00:19:21;;;;;;;5.10;1.27;;;;;;;;;;5108312;28;20066;-73
2022/11/25 00:21:51;;;;;;;4.00;0.85;;;;;;;;;;5107689;28;20056;-73
2022/11/25 00:24:21;;;;;;;8.27;1.00;;;;;;;;;;5107407;28;20047;-73
2022/11/25 00:26:50;;;;;;;3.42;0.70;;;;;;;;;;5107233;28;20422;-72
2022/11/25 00:29:20;;;;;;;1.55;0.75;;;;;;;;;;5106633;28;20070;-72
2022/11/25 00:31:50;;;;;;;3.35;0.73;;;;;;;;;;5105785;28;20485;-72
2022/11/25 00:34:20;;;;;;;3.22;0.93;;;;;;;;;;5104746;28;20056;-72
2022/11/25 00:36:52;;;;;;;5.07;0.80;;;;;;;;;;5104467;28;20058;-72
2022/11/25 00:39:23;;;;;;;2.25;0.70;;;;;;;;;;5107190;28;20043;-72
2022/11/25 00:44:41;;;;;;;1.40;0.75;;;;;;;;;;5107458;28;20494;-72
2022/11/25 00:47:12;;;;;;;3.20;0.55;;;;;;;;;;5107417;28;20524;-72
2022/11/25 00:49:48;;;;;;;2.58;0.98;;;;;;;;;;5106858;28;20505;-72
2022/11/25 00:52:24;;;;;;;4.93;0.95;;;;;;;;;;5088525;28;20044;-72
2022/11/25 00:54:54;;;;;;;0.93;0.70;;;;;;;;;;5106499;28;20533;-72
2022/11/25 00:57:24;;;;;;;4.97;0.80;;;;;;;;;;5104156;28;20620;-72
2022/11/25 00:59:54;;;;;;;3.08;0.70;;;;;;;;;;5106476;28;20433;-73
2022/11/25 01:02:24;;;;;;;2.83;0.90;;;;;;;;;;5083254;28;20055;-73
2022/11/25 01:04:55;;;;;;;2.90;0.90;;;;;;;;;;5102776;28;20051;-72
2022/11/25 01:07:24;;;;;;;2.83;1.00;;;;;;;;;;5103111;28;20786;-73
2022/11/25 01:09:55;;;;;;;2.38;0.80;;;;;;;;;;5102604;28;20549;-72
2022/11/25 01:12:26;;;;;;;3.83;0.90;;;;;;;;;;5104965;28;20050;-74
2022/11/25 01:14:56;;;;;;;5.18;1.00;;;;;;;;;;5104987;28;20402;-73
2022/11/25 01:17:25;;;;;;;1.70;0.55;;;;;;;;;;5106050;28;20528;-72
2022/11/25 01:19:55;;;;;;;1.98;0.77;;;;;;;;;;5104806;28;20063;-72
2022/11/25 01:22:25;;;;;;;4.10;1.10;;;;;;;;;;5106870;28;20066;-72
2022/11/25 01:24:56;;;;;;;5.88;0.90;;;;;;;;;;5106700;28;20058;-72
2022/11/25 01:27:26;;;;;;;2.92;0.70;;;;;;;;;;5106756;28;20044;-72
2022/11/25 01:29:56;;;;;;;1.98;0.75;;;;;;;;;;5104367;28;20063;-73
2022/11/25 01:32:26;;;;;;;2.40;0.70;;;;;;;;;;5105523;28;20059;-72
2022/11/25 01:34:55;;;;;;;1.75;0.60;;;;;;;;;;5106536;28;20576;-72
2022/11/25 01:37:25;;;;;;;3.80;0.95;;;;;;;;;;5107128;28;20946;-72
2022/11/25 01:39:55;;;;;;;4.63;0.90;;;;;;;;;;5106566;28;20540;-73
2022/11/25 01:42:29;;;;;;;1.67;0.90;;;;;;;;;;5104527;28;20051;-73
2022/11/25 01:45:25;;;;;;;2.25;0.90;;;;;;;;;;5106452;28;20501;-72
2022/11/25 01:48:02;;;;;;;2.58;0.70;;;;;;;;;;5106690;28;20506;-72
2022/11/25 01:50:34;;;;;;;0.70;0.65;;;;;;;;;;5104262;28;20052;-72
2022/11/25 01:53:07;;;;;;;4.78;0.80;;;;;;;;;;5121647;28;20051;-72
2022/11/25 01:55:42;;;;;;;1.42;0.70;;;;;;;;;;5106909;28;20047;-73
2022/11/25 01:58:17;;;;;;;2.55;0.80;;;;;;;;;;5106726;28;20078;-73
2022/11/25 02:00:50;;;;;;;1.48;0.70;;;;;;;;;;5088098;28;20137;-73
2022/11/25 02:03:24;;;;;;;2.40;0.93;;;;;;;;;;5106289;28;20052;-72
2022/11/25 02:06:03;;;;;;;3.08;1.20;;;;;;;;;;5104831;28;20537;-73
2022/11/25 02:08:33;;;;;;;1.50;0.90;;;;;;;;;;5106536;28;20209;-73
2022/11/25 02:11:06;;;;;;;4.15;1.00;;;;;;;;;;5104645;28;20048;-72
2022/11/25 02:13:36;;;;;;;3.47;0.70;;;;;;;;;;5105871;28;20039;-72
2022/11/25 02:16:07;;;;;;;2.53;1.00;;;;;;;;;;5106664;28;20044;-72
2022/11/25 02:18:37;;;;;;;0.77;0.70;;;;;;;;;;5106302;28;20105;-73
2022/11/25 02:21:08;;;;;;;0.98;0.70;;;;;;;;;;5106647;28;20102;-72
2022/11/25 02:23:56;;;;;;;0.98;0.70;;;;;;;;;;5106240;28;20090;-72
2022/11/25 02:26:28;;;;;;;3.53;1.00;;;;;;;;;;5104500;28;20615;-73
2022/11/25 02:28:58;;;;;;;4.63;1.33;;;;;;;;;;5105670;28;20044;-73
2022/11/25 02:31:30;;;;;;;2.15;0.80;;;;;;;;;;5104518;28;20541;-72
2022/11/25 02:34:00;;;;;;;2.17;0.90;;;;;;;;;;5104397;28;20051;-72
2022/11/25 02:36:30;;;;;;;5.10;0.80;;;;;;;;;;5105385;28;20047;-73
2022/11/25 02:39:00;;;;;;;4.90;0.82;;;;;;;;;;5106193;28;20047;-73
2022/11/25 02:41:41;;;;;;;1.13;0.95;;;;;;;;;;5104284;28;20055;-72
2022/11/25 02:44:12;;;;;;;3.10;0.80;;;;;;;;;;5103856;28;20051;-72
2022/11/25 02:46:42;;;;;;;4.82;1.02;;;;;;;;;;5106152;28;20059;-72
2022/11/25 02:49:12;;;;;;;3.10;1.08;;;;;;;;;;5107958;28;20493;-72
2022/11/25 02:51:44;;;;;;;1.88;0.80;;;;;;;;;;5108277;28;20044;-72
2022/11/25 02:54:15;;;;;;;2.90;1.15;;;;;;;;;;5107678;28;20055;-72
2022/11/25 02:56:45;;;;;;;6.53;1.15;;;;;;;;;;5107644;28;20044;-72
2022/11/25 02:59:14;;;;;;;10.00;1.30;;;;;;;;;;5107909;28;20052;-72
2022/11/25 03:01:45;;;;;;;2.63;0.88;;;;;;;;;;5107917;28;20059;-72
2022/11/25 03:04:15;;;;;;;1.75;0.95;;;;;;;;;;5109205;28;20510;-73
2022/11/25 03:06:45;;;;;;;3.22;0.90;;;;;;;;;;5109405;28;20063;-72
2022/11/25 03:09:16;;;;;;;3.13;0.85;;;;;;;;;;5109526;28;20047;-72
2022/11/25 03:14:34;;;;;;;6.78;1.02;;;;;;;;;;5109613;28;20048;-72
2022/11/25 03:17:04;;;;;;;4.15;0.80;;;;;;;;;;5109355;28;20066;-73
2022/11/25 03:19:33;;;;;;;4.78;1.20;;;;;;;;;;5109159;28;20059;-72
2022/11/25 03:22:03;;;;;;;1.27;0.90;;;;;;;;;;5107329;28;20051;-72
2022/11/25 03:24:33;;;;;;;3.92;1.00;;;;;;;;;;5107551;28;20478;-71
2022/11/25 03:27:04;;;;;;;2.35;0.77;;;;;;;;;;5107751;28;20051;-72
2022/11/25 03:29:35;;;;;;;2.47;0.85;;;;;;;;;;5106717;28;20410;-72
2022/11/25 03:32:05;;;;;;;5.63;1.00;;;;;;;;;;5109003;28;20047;-72
2022/11/25 03:34:38;;;;;;;3.03;0.90;;;;;;;;;;5123806;27;20620;-72
2022/11/25 03:37:08;;;;;;;2.42;0.80;;;;;;;;;;5107722;28;20048;-71
2022/11/25 03:39:38;;;;;;;1.70;0.98;;;;;;;;;;5107452;28;20048;-72
2022/11/25 03:42:09;;;;;;;1.77;0.90;;;;;;;;;;5107118;28;20068;-72
2022/11/25 03:44:39;;;;;;;8.93;1.40;;;;;;;;;;5108559;28;20058;-72
2022/11/25 03:47:09;;;;;;;6.68;1.20;;;;;;;;;;5106141;28;20486;-72
2022/11/25 03:49:39;;;;;;;8.68;1.20;;;;;;;;;;5090083;28;20052;-72
2022/11/25 03:52:10;;;;;;;2.72;1.00;;;;;;;;;;5107291;28;20052;-72
2022/11/25 03:54:40;;;;;;;2.20;0.88;;;;;;;;;;5106327;28;20847;-72
2022/11/25 03:57:21;;;;;;;2.90;1.10;;;;;;;;;;5105967;28;20059;-72
2022/11/25 03:59:52;;;;;;;2.35;0.82;;;;;;;;;;5107988;28;20554;-72
2022/11/25 04:02:22;;;;;;;5.20;1.10;;;;;;;;;;5106840;28;20055;-72
2022/11/25 04:04:53;;;;;;;7.00;1.00;;;;;;;;;;5108546;28;20047;-72
2022/11/25 04:07:24;;;;;;;1.33;0.75;;;;;;;;;;5106109;28;20047;-72
2022/11/25 04:09:55;;;;;;;7.82;1.02;;;;;;;;;;5106264;28;20502;-72
2022/11/25 04:12:46;;;;;;;5.18;1.00;;;;;;;;;;5106754;28;20066;-72
2022/11/25 04:15:26;;;;;;;1.88;0.80;;;;;;;;;;5105887;28;20051;-72
2022/11/25 04:17:58;;;;;;;3.30;1.00;;;;;;;;;;5106660;28;20117;-72
2022/11/25 04:20:29;;;;;;;4.65;1.08;;;;;;;;;;5122702;27;20055;-72
2022/11/25 04:23:05;;;;;;;3.47;1.00;;;;;;;;;;5108057;28;20050;-72
2022/11/25 04:25:40;;;;;;;1.98;1.08;;;;;;;;;;5105540;28;20051;-72
2022/11/25 04:28:20;;;;;;;3.67;1.00;;;;;;;;;;5105819;28;20513;-72
2022/11/25 04:30:51;;;;;;;2.72;1.10;;;;;;;;;;5105406;28;20066;-72
2022/11/25 04:33:22;;;;;;;2.35;1.05;;;;;;;;;;5105682;28;20047;-71
2022/11/25 04:35:51;;;;;;;3.00;1.13;;;;;;;;;;5106404;28;20065;-72
2022/11/25 04:38:21;;;;;;;2.90;1.02;;;;;;;;;;5105856;28;20510;-71
2022/11/25 04:40:52;;;;;;;2.83;0.88;;;;;;;;;;5106104;28;20579;-72
2022/11/25 04:43:23;;;;;;;3.05;1.20;;;;;;;;;;5105544;28;20524;-71
2022/11/25 04:46:01;;;;;;;2.13;1.02;;;;;;;;;;5105896;28;20051;-71
2022/11/25 04:48:45;;;;;;;3.25;1.10;;;;;;;;;;5105775;28;20055;-72
2022/11/25 04:51:16;;;;;;;0.80;0.80;;;;;;;;;;5123179;27;20048;-71
2022/11/25 04:53:51;;;;;;;5.00;1.17;;;;;;;;;;5105373;28;20506;-72
2022/11/25 04:56:23;;;;;;;4.25;0.90;;;;;;;;;;5122337;27;20055;-72
2022/11/25 05:01:47;;;;;;;6.20;1.10;;;;;;;;;;5105551;28;20391;-72
2022/11/25 05:04:28;;;;;;;3.75;1.00;;;;;;;;;;5104918;28;20059;-72
2022/11/25 05:06:58;;;;;;;6.32;1.10;;;;;;;;;;5122250;27;20414;-72
2022/11/25 05:09:28;;;;;;;5.20;1.10;;;;;;;;;;5104679;28;20506;-72
2022/11/25 05:12:11;;;;;;;8.65;1.10;;;;;;;;;;5105344;28;20059;-72
2022/11/25 05:14:41;;;;;;;6.03;1.48;;;;;;;;;;5105644;28;20413;-72
2022/11/25 05:17:17;;;;;;;1.52;1.10;;;;;;;;;;5105513;28;20060;-72
2022/11/25 05:19:48;;;;;;;1.67;1.20;;;;;;;;;;5104773;28;20056;-72
2022/11/25 05:22:21;;;;;;;3.40;0.93;;;;;;;;;;5105408;28;20054;-72
2022/11/25 05:24:52;;;;;;;1.08;0.90;;;;;;;;;;5104965;28;20063;-72
2022/11/25 05:27:22;;;;;;;4.32;1.15;;;;;;;;;;5104647;28;20047;-72
2022/11/25 05:29:53;;;;;;;1.65;0.82;;;;;;;;;;5104919;28;20071;-72
2022/11/25 05:32:25;;;;;;;2.83;1.20;;;;;;;;;;5104605;28;20058;-72
2022/11/25 05:34:58;;;;;;;5.13;1.00;;;;;;;;;;5104784;28;20055;-72
2022/11/25 05:37:28;;;;;;;2.70;1.10;;;;;;;;;;5104927;28;20074;-72
2022/11/25 05:40:05;;;;;;;2.22;1.20;;;;;;;;;;5089455;28;20059;-72
2022/11/25 05:43:04;;;;;;;3.20;1.00;;;;;;;;;;5089084;28;20414;-72
2022/11/25 05:45:38;;;;;;;4.65;1.10;;;;;;;;;;5104439;28;20052;-72
2022/11/25 05:48:10;;;;;;;2.28;1.13;;;;;;;;;;5104623;28;20055;-72
2022/11/25 05:50:40;;;;;;;2.58;1.20;;;;;;;;;;5104874;28;20059;-72
2022/11/25 05:53:20;;;;;;;2.67;1.10;;;;;;;;;;5104724;28;20051;-71
2022/11/25 05:55:57;;;;;;;2.33;1.13;;;;;;;;;;5104779;28;20056;-72
2022/11/25 05:58:46;;;;;;;3.97;1.13;;;;;;;;;;5121403;28;20054;-72
2022/11/25 06:01:16;;;;;;;1.08;0.82;;;;;;;;;;5104670;28;20056;-72
2022/11/25 06:03:47;;;;;;;2.50;1.00;;;;;;;;;;5104857;28;20055;-72
2022/11/25 06:06:18;;;;;;;1.88;1.00;;;;;;;;;;5105498;28;20047;-72
2022/11/25 06:08:48;;;;;;;3.38;1.00;;;;;;;;;;5104385;28;20056;-72
2022/11/25 06:11:18;;;;;;;5.43;0.82;;;;;;;;;;5104362;28;20055;-72
2022/11/25 06:13:47;;;;;;;1.88;1.10;;;;;;;;;;5103968;28;20044;-72
2022/11/25 06:16:20;;;;;;;3.50;1.40;;;;;;;;;;5104826;28;20048;-72
2022/11/25 06:19:05;;;;;;;1.42;1.05;;;;;;;;;;5104213;28;20441;-71
2022/11/25 06:21:37;;;;;;;4.30;0.85;;;;;;;;;;5107588;28;20074;-72
2022/11/25 06:24:07;;;;;;;6.57;1.00;;;;;;;;;;5108630;28;20047;-71
2022/11/25 06:26:38;;;;;;;2.60;1.02;;;;;;;;;;5125542;27;20648;-71
2022/11/25 06:29:08;;;;;;;1.10;1.00;;;;;;;;;;5110626;28;20701;-72
2022/11/25 06:31:39;;;;;;;1.10;0.90;;;;;;;;;;5108431;28;20537;-72
2022/11/25 06:34:30;;;;;;;3.38;1.10;;;;;;;;;;5109813;28;20066;-72
2022/11/25 06:37:00;;;;;;;1.33;1.23;;;;;;;;;;5108217;28;20521;-72
2022/11/25 06:39:31;;;;;;;5.78;0.98;;;;;;;;;;5110140;28;20047;-72
2022/11/25 06:42:00;;;;;;;;;;;;;;;;;;5109922;28;20040;-71
2022/11/25 06:44:30;;;;;;;1.10;0.95;;;;;;;;;;5109521;28;19927;-72
2022/11/25 06:47:00;;;;;;;7.00;1.25;;;;;;;;;;5109801;28;20414;-71
2022/11/25 06:49:29;;;;;;;2.15;0.90;;;;;;;;;;5108400;28;20051;-71
2022/11/25 06:52:00;;;;;;;4.30;0.90;;;;;;;;;;5110186;28;20498;-71
2022/11/25 06:54:29;;;;;;;;;;;;;;;;;;5109987;28;20044;-71
2022/11/25 06:56:58;;;;;;;1.80;0.98;;;;;;;;;;5109425;28;19927;-71
2022/11/25 06:59:28;;;;;;;4.15;1.20;;;;;;;;;;5109778;28;20094;-72
2022/11/25 07:01:58;;;;;;;;;;;;;;;;;;5109639;28;20528;-72
2022/11/25 07:04:28;;;;;;;7.75;1.25;;;;;;;;;;5109174;28;19924;-71
2022/11/25 07:06:58;;;;;;;1.95;1.15;;;;;;;;;;5109138;28;20052;-71
2022/11/25 07:09:28;;;;;;;1.45;1.05;;;;;;;;;;5107860;28;20121;-71
2022/11/25 07:11:59;;;;;;;3.92;1.02;;;;;;;;;;5109323;28;20492;-71
2022/11/25 07:14:28;;;;;;;2.05;1.05;;;;;;;;;;5109145;28;20494;-71
2022/11/25 07:16:58;;;;;;;6.18;1.08;;;;;;;;;;5090723;28;20322;-71
2022/11/25 07:19:34;;;;;;;3.40;1.00;;;;;;;;;;5109176;28;20074;-72
2022/11/25 07:22:04;;;;;;;1.00;0.82;;;;;;;;;;5107781;28;20052;-71
2022/11/25 07:24:34;;;;;;;2.70;1.27;;;;;;;;;;5108842;28;20052;-72
2022/11/25 07:27:05;;;;;;;2.00;0.93;;;;;;;;;;5109195;28;20043;-71
2022/11/25 07:29:35;;;;;;;1.42;1.00;;;;;;;;;;5108348;28;20506;-71
2022/11/25 07:32:26;;;;;;;3.10;0.93;;;;;;;;;;5108364;28;20505;-71
2022/11/25 07:34:55;;;;;;;1.40;0.90;;;;;;;;;;5108914;28;20051;-71
2022/11/25 07:37:26;;;;;;;;;;;;;;;;;;5109151;28;20048;-71
2022/11/25 07:39:56;;;;;;;2.33;1.10;;;;;;;;;;5108727;28;19927;-71
2022/11/25 07:42:26;;;;;;;;;;;;;;;;;;5109811;28;20047;-71
2022/11/25 07:44:56;;;;;;;3.53;1.33;;;;;;;;;;5108316;28;19955;-72
2022/11/25 07:47:41;;;;;;;4.20;0.98;;;;;;;;;;5107080;28;20055;-71
2022/11/25 07:50:11;;;;;;;2.50;1.08;;;;;;;;;;5108543;28;20048;-71
2022/11/25 07:52:41;;;;;;;4.53;1.15;;;;;;;;;;5108354;28;20046;-71
2022/11/25 07:55:11;;;;;;;3.28;1.13;;;;;;;;;;5108189;28;20047;-72
2022/11/25 07:57:41;;;;;;;2.85;1.15;;;;;;;;;;5108151;28;20051;-71
2022/11/25 08:00:10;;;;;;;;;;;;;;;;;;5108863;28;20062;-71
2022/11/25 08:02:40;;;;;;;5.32;1.17;;;;;;;;;;5108263;28;19919;-72
2022/11/25 08:05:10;;;;;;;1.02;0.93;;;;;;;;;;5107632;28;20521;-71
2022/11/25 08:07:40;;;;;;;5.15;1.42;;;;;;;;;;5106523;28;20063;-71
2022/11/25 08:10:10;;;;;;;2.63;1.30;;;;;;;;;;5107873;28;20052;-71
2022/11/25 08:12:40;;;;;;;1.42;1.10;;;;;;;;;;5107870;28;20044;-72
2022/11/25 08:15:10;;;;;;;3.92;1.40;;;;;;;;;;5107914;28;20055;-71
2022/11/25 08:17:40;;;;;;;2.58;1.20;;;;;;;;;;5108000;28;20505;-71
2022/11/25 08:20:10;;;;;;;5.00;1.30;;;;;;;;;;5107520;28;20051;-71
2022/11/25 08:22:39;;;;;;;1.42;1.15;;;;;;;;;;5106725;28;20074;-72
2022/11/25 08:25:09;;;;;;;;;;;;;;;;;;5108512;28;20051;-72
2022/11/25 08:27:40;;;;;;;1.55;0.88;;;;;;;;;;5107503;28;19927;-72
2022/11/25 08:30:10;;;;;;;3.92;1.00;;;;;;;;;;5107482;28;20048;-75
2022/11/25 08:32:39;;;;;;;2.60;1.08;;;;;;;;;;5107563;28;20051;-71
2022/11/25 08:35:09;;;;;;;2.70;1.25;;;;;;;;;;5108118;28;20434;-72
2022/11/25 08:37:39;;;;;;;1.60;1.35;;;;;;;;;;5105853;28;20051;-71
2022/11/25 08:40:09;;;;;;;;;;;;;;;;;;5107707;28;20047;-71
2022/11/25 08:42:39;;;;;;;4.28;1.33;;;;;;;;;;5106939;28;19924;-72
2022/11/25 08:45:11;;;;;;;5.15;1.17;;;;;;;;;;5107528;28;20051;-72
2022/11/25 08:47:41;;;;;;;3.28;1.30;;;;;;;;;;5107015;28;20428;-72
2022/11/25 08:50:13;;;;;;;5.90;1.38;;;;;;;;;;5107153;28;20472;-72
2022/11/25 08:52:44;;;;;;;7.10;1.67;;;;;;;;;;5107429;28;20051;-71
2022/11/25 08:55:15;;;;;;;3.58;1.30;;;;;;;;;;5107223;28;20054;-72
2022/11/25 08:57:44;;;;;;;6.35;1.20;;;;;;;;;;5106773;28;20076;-72
2022/11/25 09:00:14;;;;;;;;;;;;;;;;;;5107839;28;20048;-73
2022/11/25 09:02:44;;;;;;;4.88;1.35;;;;;;;;;;5106568;28;19923;-72
2022/11/25 09:05:16;;;;;;;3.55;1.25;;;;;;;;;;5106946;28;20044;-72
2022/11/25 09:07:46;;;;;;;4.97;1.33;;;;;;;;;;5106938;28;20685;-72
2022/11/25 09:10:16;;;;;;;5.97;1.20;;;;;;;;;;5106458;28;20062;-72
2022/11/25 09:12:46;;;;;;;8.10;1.20;;;;;;;;;;5121996;27;20043;-72
2022/11/25 09:15:16;;;;;;;5.47;1.40;;;;;;;;;;5107002;28;20059;-72
2022/11/25 09:17:46;;;;;;;6.43;1.98;;;;;;;;;;5106289;28;20051;-72
2022/11/25 09:20:16;;;;;;;2.25;1.30;;;;;;;;;;5106998;28;20047;-72
2022/11/25 09:22:45;;;;;;;8.10;1.63;;;;;;;;;;5106279;28;20506;-72
2022/11/25 09:25:20;;;;;;;6.53;1.55;;;;;;;;;;5106444;28;20071;-72
2022/11/25 09:27:51;;;;;;;5.05;1.85;;;;;;;;;;5107089;28;20047;-72
2022/11/25 09:30:20;;;;;;;9.10;1.98;;;;;;;;;;5106744;28;20047;-72
2022/11/25 09:32:52;;;;;;;3.33;1.83;;;;;;;;;;5106212;28;20418;-72
2022/11/25 09:35:24;;;;;;;8.13;1.50;;;;;;;;;;5106496;28;20047;-72
2022/11/25 09:37:54;;;;;;;6.63;1.77;;;;;;;;;;5106578;28;20036;-73
2022/11/25 09:40:47;;;;;;;5.47;1.70;;;;;;;;;;5106709;28;20039;-76
2022/11/25 09:46:53;;;;;;;2.75;1.20;;;;;;;;;;5106377;28;20054;-72
2022/11/25 09:50:15;;;;;;;4.03;1.25;;;;;;;;;;5105965;28;20050;-73
2022/11/25 09:53:10;;;;;;;7.05;1.10;;;;;;;;;;5072978;28;20055;-75
2022/11/25 09:55:47;;;;;;;7.55;1.08;;;;;;;;;;5108192;28;20043;-73
2022/11/25 09:58:38;;;;;;;1.75;0.90;;;;;;;;;;5110483;28;20048;-72
2022/11/25 10:01:18;;;;;;;4.05;1.25;;;;;;;;;;5111429;28;20050;-75
2022/11/25 10:03:52;;;;;;;3.10;1.13;;;;;;;;;;5109850;28;20070;-72
2022/11/25 10:06:32;;;;;;;4.07;1.40;;;;;;;;;;5110525;28;20390;-72
2022/11/25 10:09:13;;;;;;;2.35;1.20;;;;;;;;;;5110898;28;20070;-74
2022/11/25 10:12:01;;;;;;;2.30;1.20;;;;;;;;;;5110460;28;20046;-73
2022/11/25 10:14:35;;;;;;;;;;;;;;;;;;5110682;28;20436;-77
2022/11/25 10:17:20;;;;;;;1.55;0.90;;;;;;;;;;5109864;28;19932;-73
2022/11/25 10:20:16;;;;;;;12.82;2.03;;;;;;;;;;5110126;28;20070;-74
2022/11/25 10:22:51;;;;;;;13.77;3.40;;;;;;;;;;5109920;28;20039;-75
2022/11/25 10:25:28;;;;;;;8.40;3.72;;;;;;;;;;5110028;28;20379;-76
2022/11/25 10:28:00;;;;;;;3.58;1.20;;;;;;;;;;5110111;28;20036;-74
2022/11/25 10:30:48;;;;;;;4.40;2.13;;;;;;;;;;5109568;28;20356;-75
2022/11/25 10:33:20;;;;;;;4.10;0.90;;;;;;;;;;5110320;28;20063;-71
2022/11/25 10:35:59;;;;;;;5.70;0.90;;;;;;;;;;5110430;28;20494;-71
2022/11/25 10:38:42;;;;;;;2.15;0.88;;;;;;;;;;5109988;28;20044;-71
2022/11/25 10:41:17;;;;;;;6.43;1.27;;;;;;;;;;5117871;27;20051;-73
2022/11/25 10:43:47;;;;;;;2.60;0.85;;;;;;;;;;5130291;27;20054;-73
2022/11/25 10:46:35;;;;;;;5.90;2.22;;;;;;;;;;5130315;27;20035;-73
2022/11/25 10:49:37;;;;;;;5.13;0.80;;;;;;;;;;5130167;27;20066;-76
2022/11/25 10:52:12;;;;;;;5.38;1.50;;;;;;;;;;5129902;27;20050;-75
2022/11/25 10:55:15;;;;;;;5.93;2.22;;;;;;;;;;5130272;27;20043;-73
2022/11/25 10:57:45;;;;;;;5.68;1.40;;;;;;;;;;5130235;27;20047;-75
2022/11/25 11:00:26;;;;;;;4.70;1.38;;;;;;;;;;5130436;27;20424;-73
2022/11/25 11:02:57;;;;;;;1.98;1.00;;;;;;;;;;5129572;27;20393;-73
2022/11/25 11:05:30;;;;;;;4.28;1.10;;;;;;;;;;5130140;27;20054;-73
2022/11/25 11:08:27;;;;;;;3.17;1.02;;;;;;;;;;5128086;27;20529;-73
2022/11/25 11:11:14;;;;;;;6.45;1.20;;;;;;;;;;5129585;27;20050;-72
2022/11/25 11:13:47;;;;;;;2.85;0.85;;;;;;;;;;5129709;27;20486;-72
2022/11/25 11:16:32;;;;;;;3.83;1.10;;;;;;;;;;5129448;27;20074;-74
2022/11/25 11:19:03;;;;;;;2.53;0.90;;;;;;;;;;5129244;27;20043;-73
2022/11/25 11:21:44;;;;;;;1.77;0.95;;;;;;;;;;5129505;27;20046;-73
2022/11/25 11:24:27;;;;;;;4.13;1.00;;;;;;;;;;5129272;27;20980;-73
2022/11/25 11:27:24;;;;;;;1.98;0.90;;;;;;;;;;5129435;27;20050;-74
2022/11/25 11:30:15;;;;;;;2.60;0.85;;;;;;;;;;5127798;27;20382;-74
2022/11/25 11:33:02;;;;;;;2.97;2.10;;;;;;;;;;5129515;27;20047;-73
2022/11/25 11:35:32;;;;;;;1.33;0.80;;;;;;;;;;5129180;27;20547;-72
2022/11/25 11:38:55;;;;;;;1.90;1.00;;;;;;;;;;5128746;27;20039;-73
2022/11/25 11:41:43;;;;;;;3.45;0.68;;;;;;;;;;5087959;27;20077;-74
2022/11/25 11:44:38;;;;;;;4.57;1.20;;;;;;;;;;5129656;27;20039;-73
2022/11/25 11:47:08;;;;;;;3.70;0.90;;;;;;;;;;5129295;27;20043;-74
2022/11/25 11:50:09;;;;;;;3.15;1.10;;;;;;;;;;5129037;27;20618;-74
2022/11/25 11:53:16;;;;;;;4.60;1.35;;;;;;;;;;5127893;27;20418;-72
2022/11/25 11:56:15;;;;;;;6.18;1.80;;;;;;;;;;5128536;27;20047;-73
2022/11/25 11:59:45;;;;;;;4.78;1.20;;;;;;;;;;5128703;27;20043;-71
2022/11/25 12:02:44;;;;;;;6.75;2.30;;;;;;;;;;5128636;27;20039;-71
2022/11/25 12:05:20;;;;;;;6.00;1.40;;;;;;;;;;5128671;27;20035;-73
2022/11/25 12:08:13;;;;;;;4.72;1.10;;;;;;;;;;5129282;27;20031;-72
2022/11/25 12:10:53;;;;;;;3.95;1.20;;;;;;;;;;5128456;27;20051;-72
2022/11/25 12:13:31;;;;;;;1.63;0.50;;;;;;;;;;5128178;27;20047;-72
2022/11/25 12:16:33;;;;;;;2.15;0.50;;;;;;;;;;5128297;27;20047;-73
2022/11/25 12:19:15;;;;;;;1.75;0.40;;;;;;;;;;5121783;27;20063;-77
2022/11/25 12:21:55;;;;;;;4.78;0.95;;;;;;;;;;5126234;27;20047;-71
2022/11/25 12:24:50;;;;;;;2.05;0.65;;;;;;;;;;5128279;27;20043;-71
2022/11/25 12:28:02;;;;;;;2.58;0.73;;;;;;;;;;5128675;27;20409;-72
2022/11/25 12:30:57;;;;;;;3.78;0.55;;;;;;;;;;5032676;28;20067;-72
2022/11/25 12:34:10;;;;;;;3.45;0.55;;;;;;;;;;5128726;27;20519;-72
2022/11/25 12:36:43;;;;;;;2.60;0.70;;;;;;;;;;5087535;27;20059;-72
2022/11/25 12:39:45;;;;;;;2.00;0.40;;;;;;;;;;5128624;27;20697;-71
2022/11/25 12:42:27;;;;;;;0.52;0.30;;;;;;;;;;5127606;27;20070;-71
2022/11/25 12:45:23;;;;;;;1.58;0.50;;;;;;;;;;5127379;27;20039;-73
2022/11/25 12:47:53;;;;;;;1.45;0.50;;;;;;;;;;5127753;27;20050;-72
2022/11/25 12:50:51;;;;;;;1.70;0.50;;;;;;;;;;5126477;27;20046;-72
2022/11/25 12:53:32;;;;;;;3.10;0.60;;;;;;;;;;5127629;27;20039;-71
2022/11/25 12:56:06;;;;;;;7.82;0.73;;;;;;;;;;5127428;27;20050;-72
2022/11/25 12:58:58;;;;;;;3.90;0.70;;;;;;;;;;5128848;27;20050;-73
2022/11/25 13:02:03;;;;;;;3.28;0.65;;;;;;;;;;5127268;27;20050;-71
2022/11/25 13:05:00;;;;;;;0.82;0.50;;;;;;;;;;5127264;27;20049;-72
2022/11/25 13:08:02;;;;;;;2.03;0.50;;;;;;;;;;5127394;27;20039;-71
2022/11/25 13:11:18;;;;;;;1.30;0.50;;;;;;;;;;5127370;27;20050;-72
2022/11/25 13:14:02;;;;;;;1.90;0.38;;;;;;;;;;5064656;27;20518;-72
2022/11/25 13:16:33;;;;;;;3.10;0.70;;;;;;;;;;5127581;27;20047;-72
2022/11/25 13:19:11;;;;;;;5.03;1.00;;;;;;;;;;5127416;27;20050;-72
2022/11/25 13:22:05;;;;;;;2.03;0.70;;;;;;;;;;5127433;27;20051;-71
2022/11/25 13:24:40;;;;;;;1.85;0.30;;;;;;;;;;5127587;27;20397;-74
2022/11/25 13:27:52;;;;;;;1.63;0.43;;;;;;;;;;5126982;27;20513;-71
2022/11/25 13:30:35;;;;;;;2.30;0.60;;;;;;;;;;5126445;27;20062;-71
2022/11/25 13:33:11;;;;;;;2.90;0.52;;;;;;;;;;5127141;27;20525;-73
2022/11/25 13:35:45;;;;;;;4.32;0.55;;;;;;;;;;5126751;28;20047;-71
2022/11/25 13:38:30;;;;;;;1.65;0.63;;;;;;;;;;5127100;28;20050;-73
2022/11/25 13:41:41;;;;;;;4.80;0.68;;;;;;;;;;5127182;28;20047;-71
2022/11/25 13:44:27;;;;;;;0.40;0.30;;;;;;;;;;5127675;28;20051;-72
2022/11/25 13:47:00;;;;;;;1.13;0.40;;;;;;;;;;5127601;28;20066;-71
2022/11/25 13:49:48;;;;;;;2.38;0.63;;;;;;;;;;5125848;28;20043;-71
2022/11/25 13:52:18;;;;;;;2.72;0.45;;;;;;;;;;5127119;28;20078;-72
2022/11/25 13:54:54;;;;;;;1.30;0.55;;;;;;;;;;5127002;28;20051;-72
2022/11/25 13:57:30;;;;;;;1.17;0.50;;;;;;;;;;5126867;28;20039;-71
2022/11/25 14:00:07;;;;;;;4.88;0.82;;;;;;;;;;5126798;28;20397;-71
2022/11/25 14:02:45;;;;;;;6.05;0.90;;;;;;;;;;5130645;27;20043;-71
2022/11/25 14:05:35;;;;;;;3.88;1.15;;;;;;;;;;5126836;28;20050;-71
2022/11/25 14:08:25;;;;;;;1.23;0.32;;;;;;;;;;5124821;28;20051;-72
2022/11/25 14:11:08;;;;;;;4.25;0.82;;;;;;;;;;5125146;28;20051;-71
2022/11/25 14:14:10;;;;;;;2.75;0.50;;;;;;;;;;5127166;28;20043;-72
2022/11/25 14:16:43;;;;;;;2.13;0.60;;;;;;;;;;5055092;27;20521;-72
2022/11/25 14:19:27;;;;;;;2.30;0.73;;;;;;;;;;5125897;27;20414;-72
2022/11/25 14:22:41;;;;;;;3.53;0.90;;;;;;;;;;5126512;28;20498;-73
2022/11/25 14:25:18;;;;;;;2.63;0.70;;;;;;;;;;5126890;28;20047;-72
2022/11/25 14:27:55;;;;;;;4.28;0.80;;;;;;;;;;5126766;28;20070;-72
2022/11/25 14:30:33;;;;;;;1.30;0.45;;;;;;;;;;5126456;28;20031;-71
2022/11/25 14:33:08;;;;;;;2.58;0.63;;;;;;;;;;5125621;27;20047;-71
2022/11/25 14:35:50;;;;;;;3.55;0.60;;;;;;;;;;5126361;28;20043;-73
2022/11/25 14:38:36;;;;;;;2.13;0.63;;;;;;;;;;5126794;28;20413;-73
2022/11/25 14:41:25;;;;;;;3.42;0.63;;;;;;;;;;5127114;27;20035;-74
2022/11/25 14:44:00;;;;;;;4.78;0.60;;;;;;;;;;5130331;27;20054;-75
2022/11/25 14:46:30;;;;;;;3.38;0.80;;;;;;;;;;5130454;27;20588;-73
2022/11/25 14:49:02;;;;;;;1.98;0.68;;;;;;;;;;5130389;27;20047;-74
2022/11/25 14:51:46;;;;;;;0.88;0.45;;;;;;;;;;5129935;27;20058;-76
2022/11/25 14:54:17;;;;;;;2.67;0.50;;;;;;;;;;5128529;27;20047;-73
2022/11/25 14:56:48;;;;;;;1.05;0.50;;;;;;;;;;5130395;27;20050;-73
2022/11/25 14:59:18;;;;;;;2.95;0.60;;;;;;;;;;5129730;27;20499;-71
2022/11/25 15:01:54;;;;;;;1.27;0.35;;;;;;;;;;5129440;27;20051;-72
2022/11/25 15:04:25;;;;;;;5.13;0.80;;;;;;;;;;5130524;27;20043;-76
2022/11/25 15:06:59;;;;;;;3.97;0.57;;;;;;;;;;5129725;27;20486;-72
2022/11/25 15:09:41;;;;;;;1.02;0.45;;;;;;;;;;5128456;27;20531;-80
2022/11/25 15:12:20;;;;;;;3.40;0.70;;;;;;;;;;5130314;27;20391;-73
2022/11/25 15:14:54;;;;;;;0.93;0.50;;;;;;;;;;5129616;27;20043;-73
2022/11/25 15:17:36;;;;;;;2.15;0.50;;;;;;;;;;5130101;27;20050;-74
2022/11/25 15:20:16;;;;;;;2.13;1.08;;;;;;;;;;5130088;27;20058;-73
2022/11/25 15:22:48;;;;;;;4.05;0.75;;;;;;;;;;5130129;27;20485;-74
2022/11/25 15:25:19;;;;;;;3.05;0.70;;;;;;;;;;5129046;27;20051;-74
2022/11/25 15:27:51;;;;;;;1.10;0.40;;;;;;;;;;5129612;27;20047;-74
2022/11/25 15:30:23;;;;;;;1.98;0.70;;;;;;;;;;5129079;27;20051;-74
2022/11/25 15:32:54;;;;;;;0.95;0.40;;;;;;;;;;5127177;27;20054;-72
2022/11/25 15:35:26;;;;;;;3.75;0.93;;;;;;;;;;5129216;27;20042;-73
2022/11/25 15:37:56;;;;;;;1.70;0.50;;;;;;;;;;5129242;27;20078;-71
2022/11/25 15:40:42;;;;;;;2.15;0.75;;;;;;;;;;5129187;27;20069;-72
2022/11/25 15:43:30;;;;;;;2.38;0.52;;;;;;;;;;5129440;27;20055;-71
2022/11/25 15:46:03;;;;;;;1.00;0.52;;;;;;;;;;5129177;27;20066;-71
2022/11/25 15:48:48;;;;;;;5.20;0.73;;;;;;;;;;5127804;27;20047;-72
2022/11/25 15:51:28;;;;;;;0.60;0.43;;;;;;;;;;5129287;27;20066;-72
2022/11/25 15:54:05;;;;;;;0.98;0.60;;;;;;;;;;5129545;27;20046;-72